Secretariat — WDG2166 — position and weather

sailwx.info

Track history (hours):
 
Tides and Currents Weather Stations Pressure Air Temp Water Temp Dewpoint Dewpoint Depression Visibility Wind Speed Wind Dir Waves Ship Positions

Secretariat

Owner: Turn Services, LLC, New Orleans, LA. More information available from US FCC via Universal Licensing System and Coast Guard Vessel Documentation Center.

Last reported at 2018-Jun-22 15:00 UTC. Time now 2018-Jun-22 15:22 UTC.
Position N 29°35' W 090°37'.

Length 22 m; draft 2.8 m.

Type: Towing. MMSI: 367512840.

Date/timePositionNaut miles runAvg speedWind from/ knotsBaromVisibWave heightAir tempDewpointWater temp
2018-Jun-22 15:00N 29°35' W 090°37'2 4.1
2018-Jun-22 14:30N 29°36' W 090°39'1 2.0
2018-Jun-22 14:00N 29°36' W 090°40'1 1.9
2018-Jun-22 13:30N 29°37' W 090°41'1 2.9
2018-Jun-22 13:00N 29°36' W 090°43'2 3.9
2018-Jun-22 12:30N 29°34' W 090°44'2 4.2
2018-Jun-22 12:00N 29°33' W 090°46'2 4.3
2018-Jun-22 11:30N 29°32' W 090°48'3 4.7
2018-Jun-22 10:55N 29°32' W 090°51'57 1.7
2018-Jun-21 02:16N 29°56' W 091°50'53 2.4
2018-Jun-20 04:14N 29°33' W 090°55'1 4.8
2018-Jun-20 03:59N 29°33' W 090°54'2 4.4
2018-Jun-20 03:30N 29°32' W 090°51'2 4.6
2018-Jun-20 03:00N 29°32' W 090°49'2 4.5
2018-Jun-20 02:30N 29°32' W 090°46'2 4.0
2018-Jun-20 02:00N 29°34' W 090°45'2 3.2
2018-Jun-20 01:30N 29°35' W 090°43'2 3.3
2018-Jun-20 01:00N 29°36' W 090°43'1 2.1
2018-Jun-20 00:30N 29°37' W 090°41'0 0.3
2018-Jun-20 00:00N 29°37' W 090°41'0 0.0
2018-Jun-19 23:30N 29°37' W 090°41'1 1.9
2018-Jun-19 23:00N 29°36' W 090°40'2 3.5
2018-Jun-19 22:30N 29°35' W 090°39'2 3.5
2018-Jun-19 22:00N 29°35' W 090°37'2 3.6
2018-Jun-19 21:30N 29°34' W 090°35'2 3.4
2018-Jun-19 21:00N 29°34' W 090°33'2 3.6
2018-Jun-19 20:29N 29°34' W 090°31'2 3.7
2018-Jun-19 20:00N 29°34' W 090°29'2 3.7
2018-Jun-19 19:30N 29°33' W 090°27'2 3.7
2018-Jun-19 18:54N 29°33' W 090°24'1 0.0
2018-Jun-18 21:02N 29°34' W 090°23'0 6.0
2018-Jun-18 20:58N 29°33' W 090°24'3 6.0
2018-Jun-18 20:28N 29°33' W 090°27'2 3.7
2018-Jun-18 20:00N 29°33' W 090°25'2 0.3
2018-Jun-18 14:19N 29°34' W 090°23'3 0.1
2018-Jun-17 02:06N 29°33' W 090°27'0 4.7
2018-Jun-17 02:00N 29°33' W 090°28'2 4.7
2018-Jun-17 01:30N 29°34' W 090°30'3 5.1
2018-Jun-17 01:00N 29°34' W 090°33'2 4.9
2018-Jun-17 00:30N 29°35' W 090°36'2 4.9
2018-Jun-17 00:00N 29°35' W 090°39'3 5.0
2018-Jun-16 23:30N 29°36' W 090°41'2 3.1
2018-Jun-16 23:00N 29°36' W 090°43'2 3.8
2018-Jun-16 22:30N 29°34' W 090°44'1 2.3
2018-Jun-16 22:00N 29°34' W 090°45'2 4.2
2018-Jun-16 21:30N 29°32' W 090°47'2 4.7
2018-Jun-16 21:00N 29°32' W 090°49'58 1.9
2018-Jun-15 13:49N 29°56' W 091°50'1 2.6
2018-Jun-15 13:28N 29°55' W 091°50'54 3.1
2018-Jun-14 20:05N 29°33' W 090°54'1 4.8
2018-Jun-14 19:57N 29°32' W 090°53'2 4.8
2018-Jun-14 19:28N 29°32' W 090°50'2 5.1
2018-Jun-14 19:00N 29°32' W 090°48'2 4.3
2018-Jun-14 18:30N 29°33' W 090°45'2 4.1
2018-Jun-14 18:00N 29°34' W 090°43'2 3.7
2018-Jun-14 17:30N 29°36' W 090°43'1 2.5
2018-Jun-14 17:00N 29°37' W 090°42'2 3.6
2018-Jun-14 16:28N 29°36' W 090°40'2 4.1
2018-Jun-14 16:00N 29°35' W 090°38'2 4.0
2018-Jun-14 15:30N 29°35' W 090°35'2 3.9
2018-Jun-14 15:00N 29°34' W 090°33'2 4.0
2018-Jun-14 14:30N 29°34' W 090°31'2 4.2
2018-Jun-14 13:58N 29°34' W 090°29'2 4.2
2018-Jun-14 13:26N 29°33' W 090°26'1 2.1
2018-Jun-14 12:52N 29°33' W 090°25'0 0.1
2018-Jun-14 12:30N 29°33' W 090°25'0 0.0
2018-Jun-14 12:00N 29°33' W 090°25'0 0.0
2018-Jun-14 11:30N 29°33' W 090°25'0 0.0
2018-Jun-14 11:00N 29°33' W 090°25'0 0.0
2018-Jun-14 10:30N 29°33' W 090°25'0 0.1
2018-Jun-14 10:00N 29°33' W 090°25'18 0.6
2018-Jun-13 06:20N 29°44' W 090°09'7 5.0
2018-Jun-13 04:55N 29°39' W 090°14'6 5.2
2018-Jun-13 03:48N 29°38' W 090°21'2 5.8
2018-Jun-13 03:26N 29°36' W 090°22'  
Track history (hours):
 
Tides and Currents Weather Stations Pressure Air Temp Water Temp Dewpoint Dewpoint Depression Visibility Wind Speed Wind Dir Waves Ship Positions

Secretariat

Owner: Turn Services, LLC, New Orleans, LA. More information available from US FCC via Universal Licensing System and Coast Guard Vessel Documentation Center.

Last reported at 2018-Jun-22 15:00 UTC. Time now 2018-Jun-22 15:22 UTC.
Position N 29°35' W 090°37'.

Length 22 m; draft 2.8 m.

Type: Towing. MMSI: 367512840.

Date/timePositionNaut miles runAvg speedWind from/ knotsBaromVisibWave heightAir tempDewpointWater temp
2018-Jun-22 15:00N 29°35' W 090°37'2 4.1
2018-Jun-22 14:30N 29°36' W 090°39'1 2.0
2018-Jun-22 14:00N 29°36' W 090°40'1 1.9
2018-Jun-22 13:30N 29°37' W 090°41'1 2.9
2018-Jun-22 13:00N 29°36' W 090°43'2 3.9
2018-Jun-22 12:30N 29°34' W 090°44'2 4.2
2018-Jun-22 12:00N 29°33' W 090°46'2 4.3
2018-Jun-22 11:30N 29°32' W 090°48'3 4.7
2018-Jun-22 10:55N 29°32' W 090°51'57 1.7
2018-Jun-21 02:16N 29°56' W 091°50'53 2.4
2018-Jun-20 04:14N 29°33' W 090°55'1 4.8
2018-Jun-20 03:59N 29°33' W 090°54'2 4.4
2018-Jun-20 03:30N 29°32' W 090°51'2 4.6
2018-Jun-20 03:00N 29°32' W 090°49'2 4.5
2018-Jun-20 02:30N 29°32' W 090°46'2 4.0
2018-Jun-20 02:00N 29°34' W 090°45'2 3.2
2018-Jun-20 01:30N 29°35' W 090°43'2 3.3
2018-Jun-20 01:00N 29°36' W 090°43'1 2.1
2018-Jun-20 00:30N 29°37' W 090°41'0 0.3
2018-Jun-20 00:00N 29°37' W 090°41'0 0.0
2018-Jun-19 23:30N 29°37' W 090°41'1 1.9
2018-Jun-19 23:00N 29°36' W 090°40'2 3.5
2018-Jun-19 22:30N 29°35' W 090°39'2 3.5
2018-Jun-19 22:00N 29°35' W 090°37'2 3.6
2018-Jun-19 21:30N 29°34' W 090°35'2 3.4
2018-Jun-19 21:00N 29°34' W 090°33'2 3.6
2018-Jun-19 20:29N 29°34' W 090°31'2 3.7
2018-Jun-19 20:00N 29°34' W 090°29'2 3.7
2018-Jun-19 19:30N 29°33' W 090°27'2 3.7
2018-Jun-19 18:54N 29°33' W 090°24'1 0.0
2018-Jun-18 21:02N 29°34' W 090°23'0 6.0
2018-Jun-18 20:58N 29°33' W 090°24'3 6.0
2018-Jun-18 20:28N 29°33' W 090°27'2 3.7
2018-Jun-18 20:00N 29°33' W 090°25'2 0.3
2018-Jun-18 14:19N 29°34' W 090°23'3 0.1
2018-Jun-17 02:06N 29°33' W 090°27'0 4.7
2018-Jun-17 02:00N 29°33' W 090°28'2 4.7
2018-Jun-17 01:30N 29°34' W 090°30'3 5.1
2018-Jun-17 01:00N 29°34' W 090°33'2 4.9
2018-Jun-17 00:30N 29°35' W 090°36'2 4.9
2018-Jun-17 00:00N 29°35' W 090°39'3 5.0
2018-Jun-16 23:30N 29°36' W 090°41'2 3.1
2018-Jun-16 23:00N 29°36' W 090°43'2 3.8
2018-Jun-16 22:30N 29°34' W 090°44'1 2.3
2018-Jun-16 22:00N 29°34' W 090°45'2 4.2
2018-Jun-16 21:30N 29°32' W 090°47'2 4.7
2018-Jun-16 21:00N 29°32' W 090°49'58 1.9
2018-Jun-15 13:49N 29°56' W 091°50'1 2.6
2018-Jun-15 13:28N 29°55' W 091°50'54 3.1
2018-Jun-14 20:05N 29°33' W 090°54'1 4.8
2018-Jun-14 19:57N 29°32' W 090°53'2 4.8
2018-Jun-14 19:28N 29°32' W 090°50'2 5.1
2018-Jun-14 19:00N 29°32' W 090°48'2 4.3
2018-Jun-14 18:30N 29°33' W 090°45'2 4.1
2018-Jun-14 18:00N 29°34' W 090°43'2 3.7
2018-Jun-14 17:30N 29°36' W 090°43'1 2.5
2018-Jun-14 17:00N 29°37' W 090°42'2 3.6
2018-Jun-14 16:28N 29°36' W 090°40'2 4.1
2018-Jun-14 16:00N 29°35' W 090°38'2 4.0
2018-Jun-14 15:30N 29°35' W 090°35'2 3.9
2018-Jun-14 15:00N 29°34' W 090°33'2 4.0
2018-Jun-14 14:30N 29°34' W 090°31'2 4.2
2018-Jun-14 13:58N 29°34' W 090°29'2 4.2
2018-Jun-14 13:26N 29°33' W 090°26'1 2.1
2018-Jun-14 12:52N 29°33' W 090°25'0 0.1
2018-Jun-14 12:30N 29°33' W 090°25'0 0.0
2018-Jun-14 12:00N 29°33' W 090°25'0 0.0
2018-Jun-14 11:30N 29°33' W 090°25'0 0.0
2018-Jun-14 11:00N 29°33' W 090°25'0 0.0
2018-Jun-14 10:30N 29°33' W 090°25'0 0.1
2018-Jun-14 10:00N 29°33' W 090°25'18 0.6
2018-Jun-13 06:20N 29°44' W 090°09'7 5.0
2018-Jun-13 04:55N 29°39' W 090°14'6 5.2
2018-Jun-13 03:48N 29°38' W 090°21'2 5.8
2018-Jun-13 03:26N 29°36' W 090°22'  

Dump ship's entire track history